Time;durP1;ratioP1;P1;durP2;ratioP2;P2;SDS_P1;SDS_P2;PMS_P1;PMS_P2;Temp;Humidity;BMP_temperature;BMP_pressure;BME280_temperature;BME280_humidity;BME280_pressure;Samples;Min_cycle;Max_cycle;Signal;HPM_P1;HPM_P2
2023/08/14 00:01:18;;;;;;;0.13;0.13;;;17.40;99.90;;;;;;5067728;28;20047;-82
2023/08/14 00:03:44;;;;;;;0.20;0.20;;;17.00;99.90;;;;;;5085437;28;20032;-79
2023/08/14 00:06:11;;;;;;;1.10;1.10;;;17.30;99.90;;;;;;5085469;28;20071;-78
2023/08/14 00:08:37;;;;;;;0.20;0.20;;;17.30;99.90;;;;;;5085907;28;20012;-80
2023/08/14 00:11:06;;;;;;;0.17;0.17;;;17.80;99.90;;;;;;5085886;28;20086;-79
2023/08/14 00:13:48;;;;;;;0.10;0.10;;;17.30;99.90;;;;;;5067397;28;20023;-82
2023/08/14 00:16:14;;;;;;;0.10;0.10;;;17.10;99.90;;;;;;5085652;28;20560;-75
2023/08/14 00:18:40;;;;;;;0.10;0.10;;;17.00;99.90;;;;;;5067748;28;20028;-81
2023/08/14 00:21:06;;;;;;;0.10;0.10;;;;;;;;;;5097101;28;20705;-75
2023/08/14 00:23:32;;;;;;;0.10;0.10;;;17.00;99.90;;;;;;5065763;28;20035;-85
2023/08/14 00:25:58;;;;;;;0.10;0.10;;;17.90;99.90;;;;;;5081790;28;20417;-78
2023/08/14 00:28:24;;;;;;;0.10;0.10;;;17.30;99.90;;;;;;5083529;28;20043;-78
2023/08/14 00:30:50;;;;;;;0.10;0.10;;;17.40;99.90;;;;;;5084110;28;20016;-79
2023/08/14 00:33:16;;;;;;;0.10;0.10;;;16.70;99.90;;;;;;5082922;28;20040;-77
2023/08/14 00:35:42;;;;;;;0.10;0.10;;;16.20;99.90;;;;;;5083569;28;20020;-77
2023/08/14 00:38:08;;;;;;;0.10;0.10;;;16.70;99.90;;;;;;5082113;28;20036;-81
2023/08/14 00:40:34;;;;;;;0.10;0.10;;;;;;;;;;5082078;28;20270;-81
2023/08/14 00:43:00;;;;;;;0.10;0.10;;;16.50;99.90;;;;;;5082292;28;20493;-80
2023/08/14 00:45:27;;;;;;;0.10;0.10;;;14.30;99.90;;;;;;5064692;28;20617;-82
2023/08/14 00:47:54;;;;;;;0.10;0.10;;;17.70;99.90;;;;;;5082732;28;20635;-78
2023/08/14 00:50:19;;;;;;;0.65;0.65;;;17.40;99.90;;;;;;5081348;28;20533;-82
2023/08/14 00:52:48;;;;;;;0.10;0.10;;;17.40;99.90;;;;;;5082948;28;20027;-79
2023/08/14 00:55:22;;;;;;;0.10;0.10;;;17.80;99.90;;;;;;5063593;28;20053;-78
2023/08/14 00:57:50;;;;;;;0.10;0.10;;;17.80;99.90;;;;;;5081712;28;20020;-78
2023/08/14 01:00:16;;;;;;;0.47;0.30;;;17.30;99.90;;;;;;5080726;28;20370;-78
2023/08/14 01:02:43;;;;;;;0.15;0.15;;;17.40;99.90;;;;;;5083830;28;20717;-82
2023/08/14 01:05:10;;;;;;;0.10;0.10;;;17.30;99.90;;;;;;5082865;28;20024;-79
2023/08/14 01:07:36;;;;;;;0.10;0.10;;;17.20;99.90;;;;;;5082578;28;20528;-79
2023/08/14 01:10:03;;;;;;;1.65;1.55;;;17.30;99.90;;;;;;5081553;28;20398;-79
2023/08/14 01:12:42;;;;;;;0.10;0.10;;;17.30;99.90;;;;;;5062813;28;20032;-78
2023/08/14 01:15:44;;;;;;;0.10;0.10;;;15.30;99.90;;;;;;5081673;28;20016;-80
2023/08/14 01:18:18;;;;;;;0.10;0.10;;;18.50;99.90;;;;;;4961299;28;20149;-79
2023/08/14 01:20:58;;;;;;;0.10;0.10;;;17.90;99.90;;;;;;4980001;28;20039;-81
2023/08/14 01:23:41;;;;;;;0.17;0.17;;;18.00;99.90;;;;;;4979707;28;20035;-82
2023/08/14 01:26:08;;;;;;;0.85;0.85;;;18.10;99.90;;;;;;4978829;28;20030;-79
2023/08/14 01:28:34;;;;;;;0.10;0.10;;;18.40;99.90;;;;;;4979257;28;20034;-77
2023/08/14 01:31:01;;;;;;;0.20;0.20;;;17.70;99.90;;;;;;4979797;28;20030;-79
2023/08/14 01:33:27;;;;;;;1.08;1.05;;;18.40;99.90;;;;;;4979511;28;20033;-78
2023/08/14 01:36:03;;;;;;;0.20;0.20;;;18.50;99.90;;;;;;4979654;28;20106;-79
2023/08/14 01:38:57;;;;;;;0.10;0.10;;;18.60;99.90;;;;;;4978937;28;20240;-80
2023/08/14 01:41:31;;;;;;;0.10;0.10;;;19.00;99.90;;;;;;4980030;28;20392;-78
2023/08/14 01:44:02;;;;;;;0.10;0.10;;;18.70;99.90;;;;;;4978768;28;20038;-78
2023/08/14 01:46:31;;;;;;;0.10;0.10;;;18.80;99.90;;;;;;4980524;28;20373;-78
2023/08/14 01:49:00;;;;;;;0.10;0.10;;;18.70;99.90;;;;;;4980478;28;20034;-80
2023/08/14 01:51:27;;;;;;;0.20;0.20;;;18.90;99.90;;;;;;4978573;28;20113;-79
2023/08/14 01:53:54;;;;;;;0.10;0.10;;;19.10;99.90;;;;;;5035919;28;20050;-79
2023/08/14 01:56:20;;;;;;;0.20;0.20;;;19.40;99.90;;;;;;5081659;28;20032;-78
2023/08/14 01:58:46;;;;;;;1.75;1.65;;;19.40;99.90;;;;;;5080847;28;20040;-78
2023/08/14 02:01:12;;;;;;;0.10;0.10;;;19.70;99.90;;;;;;5049877;28;20080;-79
2023/08/14 02:03:38;;;;;;;0.40;0.40;;;19.40;99.90;;;;;;5040083;28;20025;-80
2023/08/14 02:06:04;;;;;;;0.10;0.10;;;19.70;99.90;;;;;;5039519;28;20035;-78
2023/08/14 02:08:30;;;;;;;0.17;0.17;;;19.30;99.90;;;;;;5041631;28;20032;-78
2023/08/14 02:10:56;;;;;;;0.10;0.10;;;18.70;99.90;;;;;;5040432;28;20029;-78
2023/08/14 02:13:22;;;;;;;0.10;0.10;;;18.50;99.90;;;;;;5040461;28;20272;-79
2023/08/14 02:15:48;;;;;;;0.10;0.10;;;18.80;99.90;;;;;;5040121;28;20056;-81
2023/08/14 02:18:15;;;;;;;3.40;3.20;;;18.80;99.90;;;;;;5040147;28;20050;-76
2023/08/14 02:20:48;;;;;;;0.10;0.10;;;19.20;99.90;;;;;;5041016;28;20478;-77
2023/08/14 02:23:14;;;;;;;0.20;0.20;;;19.20;99.90;;;;;;5040930;28;20028;-81
2023/08/14 02:25:41;;;;;;;0.10;0.10;;;19.20;99.90;;;;;;5040501;28;20033;-78
2023/08/14 02:28:08;;;;;;;0.10;0.10;;;19.40;99.90;;;;;;5044047;28;20041;-80
2023/08/14 02:30:41;;;;;;;0.10;0.10;;;19.30;99.90;;;;;;5039505;28;20025;-79
2023/08/14 02:33:07;;;;;;;0.10;0.10;;;19.90;99.90;;;;;;5039855;28;20029;-83
2023/08/14 02:35:34;;;;;;;0.10;0.10;;;20.40;99.90;;;;;;5041252;28;20167;-80
2023/08/14 02:38:01;;;;;;;0.28;0.28;;;19.40;99.90;;;;;;5041244;28;20028;-76
2023/08/14 02:40:29;;;;;;;0.43;0.43;;;19.10;99.90;;;;;;5040847;28;20294;-77
2023/08/14 02:43:00;;;;;;;0.10;0.10;;;19.10;99.90;;;;;;5039903;28;20612;-77
2023/08/14 02:45:27;;;;;;;0.10;0.10;;;19.10;99.90;;;;;;5040334;28;20640;-79
2023/08/14 02:47:53;;;;;;;0.10;0.10;;;19.40;99.90;;;;;;5040376;28;20530;-79
2023/08/14 02:50:21;;;;;;;0.65;0.55;;;19.20;99.90;;;;;;5040747;28;20013;-79
2023/08/14 02:52:51;;;;;;;0.15;0.15;;;19.30;99.90;;;;;;5041166;28;20045;-78
2023/08/14 02:55:17;;;;;;;0.25;0.25;;;19.40;99.90;;;;;;5040216;28;20367;-80
2023/08/14 02:57:43;;;;;;;0.10;0.10;;;19.70;99.90;;;;;;5040000;28;20060;-78
2023/08/14 03:00:09;;;;;;;0.32;0.32;;;19.20;99.90;;;;;;5040174;28;20024;-78
2023/08/14 03:02:36;;;;;;;0.10;0.10;;;19.40;99.90;;;;;;5080116;28;20032;-79
2023/08/14 03:05:02;;;;;;;0.10;0.10;;;20.00;99.90;;;;;;5079890;28;20595;-76
2023/08/14 03:07:28;;;;;;;0.10;0.10;;;;;;;;;;5082760;28;20043;-83
2023/08/14 03:09:56;;;;;;;0.10;0.10;;;19.50;99.90;;;;;;5083644;28;20252;-80
2023/08/14 03:12:22;;;;;;;0.10;0.10;;;19.50;99.90;;;;;;5083459;28;20276;-79
2023/08/14 03:14:48;;;;;;;0.10;0.10;;;19.60;99.90;;;;;;5079912;28;20653;-80
2023/08/14 03:17:14;;;;;;;0.10;0.10;;;19.60;99.90;;;;;;5061782;28;20032;-79
2023/08/14 03:19:41;;;;;;;0.10;0.10;;;19.70;99.90;;;;;;5094912;28;20020;-81
2023/08/14 03:22:06;;;;;;;1.17;0.93;;;20.00;99.90;;;;;;5061220;28;20028;-80
2023/08/14 03:24:33;;;;;;;0.45;0.45;;;20.00;99.90;;;;;;5079910;28;20020;-78
2023/08/14 03:26:59;;;;;;;0.17;0.17;;;20.20;99.90;;;;;;5082452;28;20588;-80
2023/08/14 03:29:25;;;;;;;0.25;0.25;;;21.10;99.90;;;;;;5082077;28;20197;-79
2023/08/14 03:31:51;;;;;;;0.10;0.10;;;19.30;99.90;;;;;;5061270;28;20016;-76
2023/08/14 03:34:17;;;;;;;0.10;0.10;;;19.40;99.90;;;;;;5080400;28;20111;-78
2023/08/14 03:36:43;;;;;;;0.10;0.10;;;19.20;99.90;;;;;;5080000;28;20020;-79
2023/08/14 03:39:10;;;;;;;0.30;0.30;;;19.30;99.90;;;;;;5061734;28;20032;-79
2023/08/14 03:41:36;;;;;;;0.10;0.10;;;19.50;99.90;;;;;;5079591;28;20532;-81
2023/08/14 03:44:02;;;;;;;0.10;0.10;;;19.60;99.90;;;;;;5061923;28;20026;-82
2023/08/14 03:46:28;;;;;;;0.10;0.10;;;19.70;99.90;;;;;;5061688;28;20764;-81
2023/08/14 03:48:54;;;;;;;0.60;0.60;;;19.60;99.90;;;;;;5063112;28;20377;-76
2023/08/14 03:51:20;;;;;;;0.10;0.10;;;19.70;99.90;;;;;;5080800;28;20268;-81
2023/08/14 03:53:46;;;;;;;0.10;0.10;;;19.70;99.90;;;;;;5062971;28;20024;-79
2023/08/14 03:56:13;;;;;;;0.10;0.10;;;;;;;;;;5084084;28;20049;-79
2023/08/14 03:58:39;;;;;;;0.10;0.10;;;19.60;99.90;;;;;;5085297;28;20027;-82
2023/08/14 04:01:05;;;;;;;0.17;0.17;;;19.60;99.90;;;;;;5064934;28;20600;-82
2023/08/14 04:03:31;;;;;;;0.10;0.10;;;19.60;99.90;;;;;;5083323;28;20165;-78
2023/08/14 04:05:57;;;;;;;0.35;0.35;;;19.80;99.90;;;;;;5083290;28;20039;-76
2023/08/14 04:08:23;;;;;;;0.10;0.10;;;19.60;99.90;;;;;;5082579;28;20149;-82
2023/08/14 04:10:57;;;;;;;0.10;0.10;;;19.60;99.90;;;;;;5082957;28;20024;-78
2023/08/14 04:13:25;;;;;;;3.13;3.03;;;19.60;99.90;;;;;;5083151;28;20084;-80
2023/08/14 04:15:51;;;;;;;0.20;0.20;;;19.50;99.90;;;;;;5083602;28;20012;-78
2023/08/14 04:18:17;;;;;;;0.10;0.10;;;19.60;99.90;;;;;;5084587;28;20512;-78
2023/08/14 04:20:43;;;;;;;0.10;0.10;;;21.40;99.90;;;;;;5066713;28;20324;-78
2023/08/14 04:23:09;;;;;;;0.10;0.10;;;20.00;99.90;;;;;;5083783;28;20119;-79
2023/08/14 04:25:38;;;;;;;0.10;0.10;;;19.70;99.90;;;;;;5083626;28;20091;-85
2023/08/14 04:28:05;;;;;;;0.25;0.25;;;19.80;99.90;;;;;;5082037;28;20093;-77
2023/08/14 04:30:31;;;;;;;0.85;0.85;;;20.00;99.90;;;;;;5082828;28;20016;-80
2023/08/14 04:32:56;;;;;;;0.10;0.10;;;19.70;99.90;;;;;;5081667;28;20035;-79
2023/08/14 04:35:22;;;;;;;0.10;0.10;;;20.40;99.90;;;;;;5081458;28;20028;-78
2023/08/14 04:37:49;;;;;;;0.17;0.17;;;19.80;99.90;;;;;;5081548;28;20021;-78
2023/08/14 04:40:15;;;;;;;0.10;0.10;;;20.20;99.90;;;;;;5082088;28;20016;-78
2023/08/14 04:42:41;;;;;;;0.10;0.10;;;19.90;99.90;;;;;;5082589;28;20066;-78
2023/08/14 04:45:07;;;;;;;0.20;0.20;;;19.80;99.90;;;;;;5082020;28;20030;-78
2023/08/14 04:47:33;;;;;;;0.10;0.10;;;19.80;99.90;;;;;;5082239;28;20592;-78
2023/08/14 04:49:59;;;;;;;0.32;0.32;;;19.90;99.90;;;;;;5082749;28;20020;-78
2023/08/14 04:52:25;;;;;;;0.10;0.10;;;19.90;99.90;;;;;;5082736;28;20028;-78
2023/08/14 04:54:51;;;;;;;0.10;0.10;;;19.90;99.90;;;;;;5081881;28;20020;-78
2023/08/14 04:57:17;;;;;;;0.10;0.10;;;20.00;99.90;;;;;;5082214;28;20043;-78
2023/08/14 04:59:43;;;;;;;0.45;0.45;;;20.00;99.90;;;;;;5082673;28;20020;-78
2023/08/14 05:02:09;;;;;;;0.10;0.10;;;;;;;;;;5082165;28;20355;-78
2023/08/14 05:04:36;;;;;;;0.20;0.20;;;;;;;;;;5081243;28;20028;-82
2023/08/14 05:07:01;;;;;;;0.10;0.10;;;20.00;99.90;;;;;;5080460;28;20428;-77
2023/08/14 05:09:27;;;;;;;0.10;0.10;;;19.70;99.90;;;;;;5082861;28;20039;-77
2023/08/14 05:11:53;;;;;;;0.10;0.10;;;19.70;99.90;;;;;;5079726;28;20099;-76
2023/08/14 05:14:19;;;;;;;0.10;0.10;;;19.80;99.90;;;;;;5064025;28;20024;-79
2023/08/14 05:16:46;;;;;;;0.10;0.10;;;19.80;99.90;;;;;;5082425;28;20386;-76
2023/08/14 05:19:12;;;;;;;0.10;0.10;;;19.90;99.90;;;;;;5063405;28;20032;-77
2023/08/14 05:21:38;;;;;;;0.10;0.10;;;19.90;99.90;;;;;;5080916;28;20097;-82
2023/08/14 05:24:04;;;;;;;3.10;2.90;;;19.90;99.90;;;;;;5083733;28;20077;-77
2023/08/14 05:26:30;;;;;;;0.10;0.10;;;20.00;99.90;;;;;;5082284;28;20031;-77
2023/08/14 05:28:56;;;;;;;0.10;0.10;;;20.00;99.90;;;;;;5082388;28;20016;-78
2023/08/14 05:31:22;;;;;;;0.10;0.10;;;19.40;99.90;;;;;;5081810;28;20024;-76
2023/08/14 05:33:48;;;;;;;0.30;0.30;;;19.10;99.90;;;;;;5080904;28;20032;-77
2023/08/14 05:36:14;;;;;;;0.17;0.17;;;19.80;99.90;;;;;;5080972;28;20471;-78
2023/08/14 05:38:40;;;;;;;0.10;0.10;;;19.70;99.90;;;;;;5082212;28;20016;-76
2023/08/14 05:41:07;;;;;;;0.22;0.22;;;19.80;99.90;;;;;;5082488;28;20106;-77
2023/08/14 05:43:33;;;;;;;0.10;0.10;;;19.70;99.90;;;;;;5082407;28;20054;-79
2023/08/14 05:45:59;;;;;;;0.10;0.10;;;19.70;99.90;;;;;;5063215;28;20340;-78
2023/08/14 05:48:25;;;;;;;0.13;0.13;;;19.90;99.90;;;;;;5081244;28;20035;-77
2023/08/14 05:50:54;;;;;;;0.00;0.00;;;20.10;99.90;;;;;;5097065;28;20020;-77
2023/08/14 05:53:20;;;;;;;0.10;0.10;;;20.10;99.90;;;;;;5081105;28;20236;-81
2023/08/14 05:55:46;;;;;;;0.52;0.52;;;20.10;99.90;;;;;;5063499;28;20035;-77
2023/08/14 05:58:12;;;;;;;0.10;0.10;;;20.10;99.90;;;;;;5077099;28;20527;-81
2023/08/14 06:00:38;;;;;;;0.63;0.63;;;20.20;99.90;;;;;;5042469;28;20052;-77
2023/08/14 06:03:04;;;;;;;0.43;0.40;;;20.30;99.90;;;;;;5042453;28;20025;-82
2023/08/14 06:05:30;;;;;;;0.10;0.10;;;20.50;99.90;;;;;;5059852;28;20725;-80
2023/08/14 06:07:57;;;;;;;0.55;0.55;;;20.50;99.90;;;;;;5059860;28;20161;-83
2023/08/14 06:10:23;;;;;;;0.10;0.10;;;20.40;99.90;;;;;;5041592;28;20028;-82
2023/08/14 06:12:50;;;;;;;0.10;0.10;;;20.60;99.90;;;;;;5059820;28;20130;-77
2023/08/14 06:15:17;;;;;;;0.45;0.45;;;20.60;99.90;;;;;;5042447;28;20020;-81
2023/08/14 06:17:44;;;;;;;0.10;0.10;;;20.30;99.90;;;;;;5058755;28;20033;-84
2023/08/14 06:20:11;;;;;;;0.10;0.10;;;20.50;99.90;;;;;;5042508;28;20063;-77
2023/08/14 06:22:40;;;;;;;1.15;1.15;;;20.80;99.90;;;;;;5060916;28;20103;-77
2023/08/14 06:25:07;;;;;;;1.20;1.10;;;20.60;99.90;;;;;;5060648;28;20654;-82
2023/08/14 06:27:34;;;;;;;12.70;11.80;;;20.70;99.90;;;;;;5040888;28;20044;-76
2023/08/14 06:30:00;;;;;;;3.10;2.13;;;;;;;;;;5059568;28;20070;-77
2023/08/14 06:32:26;;;;;;;0.10;0.10;;;20.80;99.90;;;;;;5059610;28;20023;-77
2023/08/14 06:34:52;;;;;;;0.85;0.85;;;20.80;99.90;;;;;;5059495;28;20046;-80
2023/08/14 06:37:18;;;;;;;0.63;0.63;;;20.90;99.90;;;;;;5058851;28;20671;-77
2023/08/14 06:39:44;;;;;;;1.55;1.00;;;20.70;99.90;;;;;;5044073;28;20048;-77
2023/08/14 06:42:10;;;;;;;1.38;1.27;;;20.60;99.90;;;;;;5059348;28;20021;-81
2023/08/14 06:44:36;;;;;;;0.10;0.10;;;20.70;99.90;;;;;;5059236;28;20009;-76
2023/08/14 06:47:07;;;;;;;0.10;0.10;;;20.70;99.90;;;;;;5041427;28;20040;-87
2023/08/14 06:49:33;;;;;;;0.20;0.20;;;20.50;99.90;;;;;;5058749;28;20249;-77
2023/08/14 06:51:59;;;;;;;0.10;0.10;;;20.70;99.90;;;;;;5059588;28;20035;-76
2023/08/14 06:54:25;;;;;;;0.10;0.10;;;20.80;99.90;;;;;;5059772;28;20020;-78
2023/08/14 06:56:56;;;;;;;0.13;0.13;;;20.60;99.90;;;;;;5060209;28;20025;-76
2023/08/14 06:59:22;;;;;;;0.65;0.65;;;21.00;99.90;;;;;;5060224;28;20237;-77
2023/08/14 07:01:48;;;;;;;0.10;0.10;;;20.90;99.90;;;;;;5059763;28;20040;-77
2023/08/14 07:04:14;;;;;;;2.35;2.25;;;;;;;;;;5059559;28;20032;-76
2023/08/14 07:06:41;;;;;;;0.15;0.15;;;21.00;99.90;;;;;;5058548;28;20033;-77
2023/08/14 07:09:07;;;;;;;0.10;0.10;;;20.90;99.90;;;;;;5040641;28;20085;-77
2023/08/14 07:11:38;;;;;;;7.03;3.30;;;;;;;;;;5058387;28;20016;-75
2023/08/14 07:14:05;;;;;;;0.10;0.10;;;21.10;99.90;;;;;;5042222;28;20517;-77
2023/08/14 07:16:31;;;;;;;0.13;0.13;;;20.90;99.90;;;;;;5059198;28;20074;-80
2023/08/14 07:18:57;;;;;;;0.13;0.13;;;20.90;99.90;;;;;;5059050;28;20016;-81
2023/08/14 07:21:23;;;;;;;0.10;0.10;;;21.00;99.90;;;;;;5041307;28;20044;-78
2023/08/14 07:23:48;;;;;;;0.10;0.10;;;21.10;99.90;;;;;;5041013;28;20052;-78
2023/08/14 07:26:15;;;;;;;0.10;0.10;;;20.90;99.90;;;;;;5058708;28;20021;-76
2023/08/14 07:28:41;;;;;;;0.10;0.10;;;21.20;99.90;;;;;;5059129;28;20021;-76
2023/08/14 07:31:07;;;;;;;0.10;0.10;;;21.10;99.90;;;;;;5062486;28;20070;-76
2023/08/14 07:33:34;;;;;;;0.43;0.43;;;21.20;99.90;;;;;;5044172;28;20056;-76
2023/08/14 07:36:00;;;;;;;0.10;0.10;;;20.90;99.90;;;;;;5044664;28;20662;-76
2023/08/14 07:38:26;;;;;;;0.10;0.10;;;21.00;99.90;;;;;;5044866;28;20028;-76
2023/08/14 07:40:53;;;;;;;0.10;0.10;;;21.20;99.90;;;;;;5044374;28;20291;-77
2023/08/14 07:43:19;;;;;;;0.50;0.50;;;21.40;99.90;;;;;;5044511;28;20021;-77
2023/08/14 07:45:45;;;;;;;0.75;0.75;;;21.40;99.90;;;;;;5019257;28;20341;-76
2023/08/14 07:48:11;;;;;;;0.75;0.75;;;21.40;99.90;;;;;;5019338;28;20806;-80
2023/08/14 07:50:37;;;;;;;3.40;3.20;;;21.50;99.90;;;;;;5019489;28;20045;-77
2023/08/14 07:53:03;;;;;;;0.43;0.43;;;21.50;99.90;;;;;;5018888;28;20549;-77
2023/08/14 07:55:29;;;;;;;0.35;0.35;;;21.50;99.90;;;;;;5019488;28;20026;-77
2023/08/14 07:57:55;;;;;;;0.73;0.73;;;21.60;99.90;;;;;;5019093;28;20023;-76
2023/08/14 08:00:21;;;;;;;0.10;0.10;;;21.70;99.90;;;;;;5020386;28;21579;-75
2023/08/14 08:02:47;;;;;;;0.40;0.40;;;21.90;99.90;;;;;;5003770;28;20653;-77
2023/08/14 08:05:13;;;;;;;0.10;0.10;;;21.80;99.90;;;;;;5019554;28;20649;-76
2023/08/14 08:07:39;;;;;;;2.08;1.98;;;22.00;99.90;;;;;;5003530;28;20045;-76
2023/08/14 08:10:05;;;;;;;7.45;0.95;;;22.10;99.90;;;;;;5018691;28;20024;-76
2023/08/14 08:12:31;;;;;;;0.10;0.10;;;22.30;99.90;;;;;;5020650;28;20033;-77
2023/08/14 08:14:57;;;;;;;0.32;0.32;;;22.50;99.90;;;;;;5020629;28;20039;-78
2023/08/14 08:17:23;;;;;;;0.10;0.10;;;22.60;99.90;;;;;;5051501;28;20108;-78
2023/08/14 08:19:48;;;;;;;0.10;0.10;;;22.80;99.90;;;;;;5043143;28;20636;-76
2023/08/14 08:22:17;;;;;;;0.10;0.10;;;22.80;99.90;;;;;;5043886;28;20028;-77
2023/08/14 08:24:43;;;;;;;0.10;0.10;;;22.80;99.90;;;;;;5043230;28;20551;-76
2023/08/14 08:27:08;;;;;;;0.32;0.32;;;23.00;99.90;;;;;;5043749;28;20522;-76
2023/08/14 08:29:34;;;;;;;0.77;0.75;;;23.20;99.90;;;;;;5061715;28;20647;-76
2023/08/14 08:32:00;;;;;;;0.13;0.13;;;23.30;99.90;;;;;;5061286;28;20025;-81
2023/08/14 08:34:25;;;;;;;0.10;0.10;;;23.40;99.90;;;;;;5061077;28;20098;-76
2023/08/14 08:36:57;;;;;;;0.47;0.47;;;23.60;99.90;;;;;;5042835;28;20031;-77
2023/08/14 08:39:25;;;;;;;0.10;0.10;;;23.80;99.90;;;;;;5044024;28;20020;-77
2023/08/14 08:41:52;;;;;;;0.10;0.10;;;23.80;99.90;;;;;;5043805;28;20027;-77
2023/08/14 08:44:31;;;;;;;0.10;0.10;;;23.90;99.90;;;;;;5044038;28;20021;-75
2023/08/14 08:47:06;;;;;;;0.40;0.40;;;24.20;99.90;;;;;;5060910;28;20052;-76
2023/08/14 08:49:33;;;;;;;0.93;0.75;;;22.80;99.90;;;;;;5043713;28;20713;-86
2023/08/14 08:52:01;;;;;;;0.43;0.43;;;24.20;99.90;;;;;;5061256;28;20008;-79
2023/08/14 08:54:28;;;;;;;0.20;0.20;;;24.50;99.90;;;;;;5061460;28;20792;-77
2023/08/14 08:56:57;;;;;;;0.20;0.20;;;25.30;99.90;;;;;;5043569;28;20067;-77
2023/08/14 08:59:25;;;;;;;0.10;0.10;;;25.10;99.90;;;;;;5061210;28;20021;-84
2023/08/14 09:01:52;;;;;;;0.20;0.20;;;;;;;;;;5061455;28;20097;-76
2023/08/14 09:04:18;;;;;;;0.20;0.20;;;25.00;99.90;;;;;;5061034;28;20039;-78
2023/08/14 09:06:44;;;;;;;1.35;1.35;;;24.90;99.90;;;;;;5061143;28;20055;-82
2023/08/14 09:09:12;;;;;;;0.68;0.68;;;24.80;99.90;;;;;;5060658;28;20020;-76
2023/08/14 09:11:39;;;;;;;0.13;0.13;;;24.80;99.90;;;;;;5060753;28;20051;-79
2023/08/14 09:14:05;;;;;;;0.10;0.10;;;23.10;99.90;;;;;;5061303;28;20061;-77
2023/08/14 09:16:31;;;;;;;0.15;0.15;;;25.10;99.90;;;;;;5060389;28;20554;-77
2023/08/14 09:18:59;;;;;;;0.45;0.45;;;25.10;99.90;;;;;;5042786;28;20315;-83
2023/08/14 09:21:25;;;;;;;0.20;0.20;;;21.60;99.90;;;;;;5042545;28;20054;-83
2023/08/14 09:23:52;;;;;;;0.10;0.10;;;25.70;99.90;;;;;;5059159;28;20077;-82
2023/08/14 09:26:19;;;;;;;0.35;0.35;;;25.50;99.90;;;;;;5043228;28;20063;-81
2023/08/14 09:28:46;;;;;;;0.10;0.10;;;25.60;99.90;;;;;;5060388;28;20067;-82
2023/08/14 09:31:13;;;;;;;0.10;0.10;;;26.00;99.90;;;;;;5060624;28;20050;-77
2023/08/14 09:33:40;;;;;;;0.17;0.17;;;26.20;99.90;;;;;;5060312;28;20027;-76
2023/08/14 09:36:07;;;;;;;0.20;0.20;;;26.40;99.10;;;;;;5060353;28;20021;-76
2023/08/14 09:38:33;;;;;;;0.20;0.20;;;26.60;98.80;;;;;;5060187;28;20131;-76
2023/08/14 09:41:00;;;;;;;0.10;0.10;;;28.50;98.90;;;;;;5059942;28;20021;-76
2023/08/14 09:43:31;;;;;;;0.00;0.00;;;26.90;96.50;;;;;;5061034;28;20027;-77
2023/08/14 09:46:00;;;;;;;0.10;0.10;;;27.00;96.60;;;;;;5060887;28;20125;-77
2023/08/14 09:48:43;;;;;;;0.20;0.20;;;27.30;96.60;;;;;;5060833;28;20052;-77
2023/08/14 09:51:15;;;;;;;0.40;0.40;;;29.10;96.60;;;;;;5042527;28;20020;-78
2023/08/14 09:53:54;;;;;;;0.15;0.15;;;27.50;95.20;;;;;;5059480;28;20024;-76
2023/08/14 09:56:21;;;;;;;0.00;0.00;;;28.40;94.20;;;;;;5042053;28;20032;-78
2023/08/14 09:58:48;;;;;;;0.10;0.10;;;28.40;93.60;;;;;;5059959;28;20071;-76
2023/08/14 10:01:16;;;;;;;0.10;0.10;;;28.60;91.90;;;;;;5059542;28;20425;-77
2023/08/14 10:03:43;;;;;;;0.52;0.45;;;28.80;90.80;;;;;;5060264;28;20028;-77
2023/08/14 10:06:11;;;;;;;0.10;0.10;;;28.90;91.10;;;;;;5041969;28;20033;-77
2023/08/14 10:08:40;;;;;;;0.10;0.10;;;29.00;90.20;;;;;;5042743;28;20048;-77
2023/08/14 10:11:11;;;;;;;0.35;0.30;;;29.20;90.50;;;;;;5059667;28;20019;-78
2023/08/14 10:13:52;;;;;;;0.88;0.55;;;29.20;90.70;;;;;;5059535;28;20109;-77
2023/08/14 10:16:25;;;;;;;0.20;0.20;;;29.40;87.90;;;;;;5059763;28;20508;-78
2023/08/14 10:18:54;;;;;;;;;;;29.20;88.20;;;;;;5059443;28;20029;-76
2023/08/14 10:21:21;;;;;;;0.10;0.10;;;;;;;;;;5058752;28;19907;-77
2023/08/14 10:23:49;;;;;;;0.13;0.13;;;29.20;87.80;;;;;;5059720;28;20705;-78
2023/08/14 10:26:17;;;;;;;0.20;0.20;;;29.30;87.70;;;;;;5059934;28;20625;-75
2023/08/14 10:28:43;;;;;;;0.00;0.00;;;29.40;86.40;;;;;;5059553;28;20021;-76
2023/08/14 10:31:10;;;;;;;0.80;0.65;;;29.70;86.50;;;;;;5058883;28;20031;-76
2023/08/14 10:33:38;;;;;;;0.40;0.35;;;29.30;85.80;;;;;;5040902;28;20032;-77
2023/08/14 10:36:04;;;;;;;0.15;0.15;;;29.40;85.30;;;;;;5058996;28;20100;-76
2023/08/14 10:38:49;;;;;;;0.35;0.13;;;29.60;85.90;;;;;;5059683;28;20012;-76
2023/08/14 10:41:17;;;;;;;0.47;0.47;;;29.60;84.10;;;;;;5041314;28;20029;-78
2023/08/14 10:43:50;;;;;;;2.75;2.50;;;26.90;81.80;;;;;;5058469;28;20017;-83
2023/08/14 10:46:17;;;;;;;0.25;0.25;;;30.10;84.10;;;;;;5040496;28;20677;-75
2023/08/14 10:48:47;;;;;;;0.65;0.57;;;30.10;83.10;;;;;;5059230;28;20103;-77
2023/08/14 10:51:15;;;;;;;0.32;0.25;;;30.10;82.20;;;;;;5058276;28;20095;-76
2023/08/14 10:53:41;;;;;;;0.00;0.00;;;30.20;82.00;;;;;;5041129;28;20020;-76
2023/08/14 10:56:07;;;;;;;0.10;0.10;;;30.30;81.80;;;;;;5060150;28;20080;-77
2023/08/14 10:58:37;;;;;;;0.25;0.25;;;30.30;81.30;;;;;;5059421;28;20055;-76
2023/08/14 11:01:08;;;;;;;0.10;0.10;;;31.50;80.90;;;;;;5059613;28;20055;-75
2023/08/14 11:04:04;;;;;;;0.00;0.00;;;30.40;80.00;;;;;;5058999;28;20035;-78
2023/08/14 11:06:59;;;;;;;0.20;0.20;;;30.40;80.30;;;;;;5059240;28;20032;-79
2023/08/14 11:09:38;;;;;;;0.30;0.30;;;30.30;78.90;;;;;;5059017;28;20044;-79
2023/08/14 11:12:07;;;;;;;0.45;0.45;;;30.50;79.90;;;;;;5041096;28;20023;-76
2023/08/14 11:14:38;;;;;;;0.00;0.00;;;30.30;80.10;;;;;;5059131;28;20285;-77
2023/08/14 11:17:04;;;;;;;2.13;2.03;;;30.30;77.80;;;;;;5059465;28;20017;-79
2023/08/14 11:19:32;;;;;;;0.38;0.38;;;30.30;79.20;;;;;;5058912;28;20100;-77
2023/08/14 11:21:59;;;;;;;0.10;0.10;;;30.50;79.30;;;;;;5060106;28;20707;-77
2023/08/14 11:24:26;;;;;;;0.45;0.28;;;30.60;79.90;;;;;;5043621;28;20690;-76
2023/08/14 11:26:53;;;;;;;0.77;0.77;;;30.60;77.60;;;;;;5041713;28;20101;-78
2023/08/14 11:29:19;;;;;;;0.10;0.10;;;30.80;78.30;;;;;;5041866;28;20100;-76
2023/08/14 11:31:48;;;;;;;3.50;3.05;;;30.90;77.10;;;;;;5059208;28;20112;-77
2023/08/14 11:34:15;;;;;;;6.85;0.43;;;31.10;77.50;;;;;;5059652;28;20047;-76
2023/08/14 11:36:51;;;;;;;0.65;0.65;;;31.10;77.20;;;;;;5059104;28;20025;-76
2023/08/14 11:39:17;;;;;;;0.40;0.40;;;30.60;76.70;;;;;;5041237;28;20736;-76
2023/08/14 11:41:43;;;;;;;0.00;0.00;;;31.90;75.80;;;;;;5059086;28;20021;-77
2023/08/14 11:44:09;;;;;;;0.57;0.30;;;31.70;76.30;;;;;;5040831;28;20081;-77
2023/08/14 11:46:36;;;;;;;0.15;0.15;;;31.90;75.10;;;;;;5058855;28;20029;-77
2023/08/14 11:49:02;;;;;;;0.00;0.00;;;32.00;73.50;;;;;;5059394;28;20362;-76
2023/08/14 11:51:29;;;;;;;0.20;0.20;;;32.00;74.50;;;;;;5041156;28;20536;-76
2023/08/14 11:53:58;;;;;;;0.17;0.17;;;32.10;73.50;;;;;;5041359;28;20129;-81
2023/08/14 11:56:24;;;;;;;0.35;0.20;;;32.40;72.50;;;;;;5058554;28;20020;-77
2023/08/14 11:58:50;;;;;;;0.10;0.10;;;32.50;72.60;;;;;;5058578;28;20548;-76
2023/08/14 12:01:16;;;;;;;0.52;0.22;;;32.60;73.60;;;;;;5040269;28;20068;-76
2023/08/14 12:03:43;;;;;;;0.00;0.00;;;31.30;72.30;;;;;;5040077;28;20033;-76
2023/08/14 12:06:10;;;;;;;0.52;0.50;;;32.90;72.90;;;;;;5057661;28;20055;-77
2023/08/14 12:08:38;;;;;;;0.22;0.22;;;33.30;72.80;;;;;;5058696;28;20229;-76
2023/08/14 12:11:05;;;;;;;0.25;0.20;;;33.40;72.10;;;;;;5058409;28;20019;-77
2023/08/14 12:13:33;;;;;;;0.65;0.55;;;33.80;72.30;;;;;;5058769;28;20021;-77
2023/08/14 12:16:09;;;;;;;0.38;0.32;;;34.00;71.30;;;;;;5059670;28;20040;-76
2023/08/14 12:18:35;;;;;;;0.17;0.17;;;34.50;70.40;;;;;;5062609;28;20034;-77
2023/08/14 12:21:11;;;;;;;0.30;0.30;;;34.10;70.30;;;;;;5044739;28;20020;-77
2023/08/14 12:23:41;;;;;;;0.17;0.17;;;34.40;70.10;;;;;;5062429;28;20052;-77
2023/08/14 12:26:08;;;;;;;0.55;0.30;;;34.80;68.70;;;;;;5043391;28;20016;-77
2023/08/14 12:28:34;;;;;;;0.10;0.10;;;34.50;68.60;;;;;;5061752;28;20679;-78
2023/08/14 12:31:00;;;;;;;0.65;0.40;;;34.80;70.30;;;;;;5060918;28;20082;-76
2023/08/14 12:33:29;;;;;;;0.45;0.25;;;34.70;68.10;;;;;;5061595;28;20028;-76
2023/08/14 12:35:55;;;;;;;0.90;0.60;;;35.30;68.90;;;;;;5061253;28;20578;-80
2023/08/14 12:38:21;;;;;;;1.23;0.40;;;35.20;69.20;;;;;;5062325;28;20023;-76
2023/08/14 12:40:50;;;;;;;1.83;0.73;;;35.40;68.70;;;;;;5061934;28;20480;-76
2023/08/14 12:43:17;;;;;;;0.95;0.70;;;34.80;65.90;;;;;;5061314;28;20570;-77
2023/08/14 12:45:43;;;;;;;0.88;0.88;;;34.80;69.10;;;;;;5061757;28;20021;-78
2023/08/14 12:48:09;;;;;;;0.63;0.55;;;35.10;68.70;;;;;;5043969;28;20032;-76
2023/08/14 12:50:35;;;;;;;0.82;0.47;;;35.60;66.70;;;;;;5043265;28;20012;-76
2023/08/14 12:53:04;;;;;;;0.10;0.10;;;34.70;65.20;;;;;;5061542;28;20024;-77